Time;durP1;ratioP1;P1;durP2;ratioP2;P2;SDS_P1;SDS_P2;PMS_P1;PMS_P2;Temp;Humidity;BMP_temperature;BMP_pressure;BME280_temperature;BME280_humidity;BME280_pressure;Samples;Min_cycle;Max_cycle;Signal;HPM_P1;HPM_P2
2023/07/27 00:00:10;;;;;;;0.30;0.22;;;;;;;;;;5034420;28;20122;-82
2023/07/27 00:02:36;;;;;;;0.20;0.20;;;;;;;;;;5035417;28;20035;-82
2023/07/27 00:05:04;;;;;;;0.15;0.15;;;;;;;;;;5035700;28;20029;-82
2023/07/27 00:07:30;;;;;;;0.08;0.08;;;;;;;;;;5035515;28;20070;-82
2023/07/27 00:09:56;;;;;;;2.55;0.20;;;;;;;;;;5035894;28;20223;-82
2023/07/27 00:12:22;;;;;;;0.10;0.10;;;;;;;;;;5036118;28;20056;-83
2023/07/27 00:14:51;;;;;;;0.10;0.10;;;;;;;;;;5035462;28;20045;-83
2023/07/27 00:17:18;;;;;;;0.10;0.10;;;;;;;;;;5035064;28;20485;-83
2023/07/27 00:19:44;;;;;;;0.30;0.30;;;;;;;;;;5035258;28;20108;-83
2023/07/27 00:22:10;;;;;;;0.10;0.10;;;;;;;;;;5035184;28;20060;-83
2023/07/27 00:24:36;;;;;;;0.10;0.10;;;;;;;;;;5035612;28;20056;-83
2023/07/27 00:27:02;;;;;;;0.10;0.10;;;;;;;;;;5035144;28;20061;-83
2023/07/27 00:29:28;;;;;;;0.10;0.10;;;;;;;;;;5035069;28;20044;-83
2023/07/27 00:31:54;;;;;;;0.47;0.20;;;;;;;;;;5035468;28;20409;-83
2023/07/27 00:34:20;;;;;;;0.05;0.05;;;;;;;;;;5035556;28;20030;-82
2023/07/27 00:36:46;;;;;;;0.70;0.57;;;;;;;;;;5035052;28;20018;-83
2023/07/27 00:39:12;;;;;;;0.10;0.10;;;;;;;;;;5035038;28;20032;-83
2023/07/27 00:41:42;;;;;;;0.10;0.10;;;;;;;;;;5034988;28;20065;-83
2023/07/27 00:44:08;;;;;;;0.10;0.10;;;;;;;;;;5034951;28;20056;-83
2023/07/27 00:46:36;;;;;;;0.10;0.10;;;;;;;;;;5034614;28;20029;-82
2023/07/27 00:49:02;;;;;;;0.40;0.40;;;;;;;;;;5034894;28;20091;-83
2023/07/27 00:51:30;;;;;;;0.05;0.05;;;;;;;;;;5034752;28;20025;-83
2023/07/27 00:53:56;;;;;;;0.80;0.40;;;;;;;;;;5034912;28;20029;-83
2023/07/27 00:56:22;;;;;;;0.05;0.05;;;;;;;;;;5034728;28;20032;-83
2023/07/27 00:58:48;;;;;;;0.00;0.00;;;;;;;;;;5034956;28;20544;-83
2023/07/27 01:01:14;;;;;;;0.10;0.10;;;;;;;;;;5034329;28;20045;-83
2023/07/27 01:03:40;;;;;;;0.10;0.10;;;;;;;;;;5034529;28;20141;-83
2023/07/27 01:06:06;;;;;;;0.00;0.00;;;;;;;;;;5034615;28;20104;-83
2023/07/27 01:08:32;;;;;;;0.10;0.10;;;;;;;;;;5034457;28;20121;-83
2023/07/27 01:11:06;;;;;;;0.00;0.00;;;;;;;;;;5034537;28;20021;-82
2023/07/27 01:13:39;;;;;;;0.10;0.10;;;;;;;;;;5035253;28;20034;-83
2023/07/27 01:16:08;;;;;;;0.20;0.20;;;;;;;;;;5033885;28;20031;-81
2023/07/27 01:18:46;;;;;;;0.20;0.20;;;;;;;;;;5034544;28;20425;-83
2023/07/27 01:21:12;;;;;;;0.10;0.10;;;;;;;;;;5034086;28;20035;-83
2023/07/27 01:23:57;;;;;;;0.00;0.00;;;;;;;;;;5034219;28;20096;-82
2023/07/27 01:26:41;;;;;;;0.40;0.40;;;;;;;;;;5034171;28;20080;-83
2023/07/27 01:29:26;;;;;;;0.20;0.20;;;;;;;;;;5032754;28;20038;-83
2023/07/27 01:31:52;;;;;;;0.13;0.13;;;;;;;;;;5033965;28;20108;-83
2023/07/27 01:34:29;;;;;;;0.20;0.20;;;;;;;;;;5034012;28;20064;-82
2023/07/27 01:36:57;;;;;;;0.10;0.10;;;;;;;;;;5033980;28;20033;-82
2023/07/27 01:39:24;;;;;;;0.10;0.10;;;;;;;;;;5034268;28;20091;-82
2023/07/27 01:41:51;;;;;;;0.28;0.25;;;;;;;;;;5033994;28;20029;-82
2023/07/27 01:44:17;;;;;;;0.10;0.10;;;;;;;;;;5033497;28;20100;-82
2023/07/27 01:46:44;;;;;;;1.30;0.63;;;;;;;;;;5033697;28;20017;-83
2023/07/27 01:49:11;;;;;;;0.10;0.10;;;;;;;;;;5033614;28;20069;-83
2023/07/27 01:51:38;;;;;;;0.10;0.10;;;;;;;;;;5033643;28;20060;-83
2023/07/27 01:54:04;;;;;;;0.38;0.38;;;;;;;;;;5034116;28;20022;-82
2023/07/27 01:56:31;;;;;;;0.20;0.20;;;;;;;;;;5033570;28;20029;-82
2023/07/27 01:58:58;;;;;;;0.10;0.10;;;;;;;;;;5033276;28;20108;-82
2023/07/27 02:01:24;;;;;;;0.20;0.20;;;;;;;;;;5033428;28;20032;-82
2023/07/27 02:03:50;;;;;;;0.20;0.20;;;;;;;;;;5033385;28;20033;-82
2023/07/27 02:06:16;;;;;;;0.50;0.50;;;;;;;;;;5033864;28;20057;-82
2023/07/27 02:08:42;;;;;;;0.10;0.10;;;;;;;;;;5033169;28;20150;-83
2023/07/27 02:11:09;;;;;;;0.10;0.10;;;;;;;;;;5033384;28;20037;-82
2023/07/27 02:13:38;;;;;;;0.35;0.35;;;;;;;;;;5032994;28;20036;-82
2023/07/27 02:16:10;;;;;;;0.15;0.13;;;;;;;;;;5033217;28;20029;-83
2023/07/27 02:18:37;;;;;;;0.10;0.10;;;;;;;;;;5034132;28;20055;-83
2023/07/27 02:21:04;;;;;;;0.20;0.20;;;;;;;;;;5031661;28;20026;-83
2023/07/27 02:23:31;;;;;;;0.50;0.50;;;;;;;;;;5032544;28;20022;-84
2023/07/27 02:25:57;;;;;;;0.20;0.20;;;;;;;;;;5033106;28;20052;-85
2023/07/27 02:28:27;;;;;;;0.10;0.10;;;;;;;;;;5032857;28;20296;-85
2023/07/27 02:30:53;;;;;;;0.15;0.15;;;;;;;;;;5033659;28;20636;-85
2023/07/27 02:33:19;;;;;;;0.35;0.35;;;;;;;;;;5032815;28;20022;-85
2023/07/27 02:35:45;;;;;;;0.52;0.22;;;;;;;;;;5032858;28;20068;-85
2023/07/27 02:38:11;;;;;;;0.30;0.30;;;;;;;;;;5033274;28;20033;-85
2023/07/27 02:40:37;;;;;;;0.10;0.10;;;;;;;;;;5032678;28;20092;-85
2023/07/27 02:43:04;;;;;;;0.20;0.20;;;;;;;;;;5032272;28;20021;-85
2023/07/27 02:45:32;;;;;;;0.10;0.10;;;;;;;;;;5032771;28;20433;-85
2023/07/27 02:47:58;;;;;;;0.32;0.32;;;;;;;;;;5032500;28;20032;-85
2023/07/27 02:50:24;;;;;;;0.35;0.35;;;;;;;;;;5032645;28;20030;-85
2023/07/27 02:52:50;;;;;;;0.40;0.40;;;;;;;;;;5032593;28;20025;-85
2023/07/27 02:55:16;;;;;;;0.10;0.10;;;;;;;;;;5032732;28;20405;-85
2023/07/27 02:57:42;;;;;;;0.20;0.20;;;;;;;;;;5032212;28;20366;-85
2023/07/27 03:00:09;;;;;;;0.20;0.20;;;;;;;;;;5032364;28;20056;-85
2023/07/27 03:02:35;;;;;;;0.10;0.10;;;;;;;;;;5032236;28;20034;-85
2023/07/27 03:05:02;;;;;;;0.17;0.17;;;;;;;;;;5032914;28;20032;-85
2023/07/27 03:07:28;;;;;;;0.30;0.30;;;;;;;;;;5032174;28;20029;-85
2023/07/27 03:09:54;;;;;;;0.10;0.10;;;;;;;;;;5032242;28;20037;-85
2023/07/27 03:12:20;;;;;;;0.10;0.10;;;;;;;;;;5031918;28;20100;-85
2023/07/27 03:14:46;;;;;;;0.10;0.10;;;;;;;;;;5032275;28;20049;-85
2023/07/27 03:17:12;;;;;;;0.20;0.20;;;;;;;;;;5031961;28;20144;-85
2023/07/27 03:19:39;;;;;;;0.10;0.10;;;;;;;;;;5032639;28;20026;-85
2023/07/27 03:22:05;;;;;;;0.20;0.20;;;;;;;;;;5032206;28;20439;-85
2023/07/27 03:24:31;;;;;;;0.10;0.10;;;;;;;;;;5031986;28;20026;-85
2023/07/27 03:26:57;;;;;;;0.30;0.30;;;;;;;;;;5032643;28;20402;-85
2023/07/27 03:29:23;;;;;;;0.10;0.10;;;;;;;;;;5032005;28;20037;-85
2023/07/27 03:31:49;;;;;;;0.93;0.38;;;;;;;;;;5032102;28;20025;-85
2023/07/27 03:34:15;;;;;;;0.10;0.10;;;;;;;;;;5035083;28;20049;-85
2023/07/27 03:36:41;;;;;;;0.20;0.20;;;;;;;;;;5036647;28;20119;-85
2023/07/27 03:39:07;;;;;;;0.10;0.10;;;;;;;;;;5036181;28;20033;-85
2023/07/27 03:41:34;;;;;;;0.35;0.35;;;;;;;;;;5035778;28;20108;-85
2023/07/27 03:44:00;;;;;;;0.28;0.22;;;;;;;;;;5035983;28;20060;-85
2023/07/27 03:46:26;;;;;;;0.17;0.17;;;;;;;;;;5035883;28;20033;-85
2023/07/27 03:48:52;;;;;;;0.15;0.15;;;;;;;;;;5035877;28;20440;-85
2023/07/27 03:51:18;;;;;;;0.10;0.10;;;;;;;;;;5035813;28;20441;-85
2023/07/27 03:53:44;;;;;;;0.35;0.25;;;;;;;;;;5036118;28;20029;-85
2023/07/27 03:56:10;;;;;;;1.15;1.05;;;;;;;;;;5035242;28;20550;-85
2023/07/27 03:58:36;;;;;;;0.73;0.55;;;;;;;;;;5035756;28;20021;-85
2023/07/27 04:01:02;;;;;;;0.05;0.05;;;;;;;;;;5035633;28;20498;-84
2023/07/27 04:03:28;;;;;;;0.17;0.17;;;;;;;;;;5036122;28;20030;-84
2023/07/27 04:05:54;;;;;;;0.28;0.28;;;;;;;;;;5035599;28;20029;-85
2023/07/27 04:08:20;;;;;;;0.35;0.35;;;;;;;;;;5035537;28;20080;-85
2023/07/27 04:10:46;;;;;;;0.13;0.13;;;;;;;;;;5035235;28;20032;-85
2023/07/27 04:13:12;;;;;;;0.10;0.10;;;;;;;;;;5035652;28;20045;-85
2023/07/27 04:15:38;;;;;;;0.10;0.10;;;;;;;;;;5035617;28;20026;-85
2023/07/27 04:18:04;;;;;;;0.65;0.35;;;;;;;;;;5035242;28;20061;-85
2023/07/27 04:20:30;;;;;;;0.10;0.10;;;;;;;;;;5035673;28;20184;-85
2023/07/27 04:22:56;;;;;;;0.10;0.10;;;;;;;;;;5034959;28;20033;-85
2023/07/27 04:25:22;;;;;;;0.17;0.17;;;;;;;;;;5035067;28;20037;-85
2023/07/27 04:27:50;;;;;;;0.20;0.20;;;;;;;;;;5034924;28;20036;-85
2023/07/27 04:30:15;;;;;;;0.30;0.30;;;;;;;;;;5035479;28;20061;-85
2023/07/27 04:32:41;;;;;;;0.15;0.15;;;;;;;;;;5035060;28;20056;-85
2023/07/27 04:35:07;;;;;;;0.10;0.10;;;;;;;;;;5035138;28;20029;-85
2023/07/27 04:37:33;;;;;;;0.20;0.20;;;;;;;;;;5035145;28;20021;-85
2023/07/27 04:39:59;;;;;;;0.28;0.28;;;;;;;;;;5035064;28;20025;-85
2023/07/27 04:42:25;;;;;;;0.20;0.20;;;;;;;;;;5034928;28;20434;-84
2023/07/27 04:44:51;;;;;;;0.40;0.40;;;;;;;;;;5034067;28;20029;-85
2023/07/27 04:47:17;;;;;;;0.20;0.20;;;;;;;;;;5035720;28;20040;-84
2023/07/27 04:49:43;;;;;;;0.30;0.30;;;;;;;;;;5035125;28;20041;-84
2023/07/27 04:52:09;;;;;;;0.43;0.43;;;;;;;;;;5034799;28;20547;-84
2023/07/27 04:54:35;;;;;;;0.20;0.20;;;;;;;;;;5034426;28;20029;-85
2023/07/27 04:57:01;;;;;;;0.10;0.10;;;;;;;;;;5034721;28;20501;-84
2023/07/27 04:59:27;;;;;;;0.10;0.10;;;;;;;;;;5035205;28;20087;-85
2023/07/27 05:01:53;;;;;;;0.20;0.20;;;;;;;;;;5034503;28;20034;-84
2023/07/27 05:04:19;;;;;;;0.13;0.13;;;;;;;;;;5034792;28;20017;-84
2023/07/27 05:06:45;;;;;;;0.20;0.20;;;;;;;;;;5034478;28;20059;-85
2023/07/27 05:09:11;;;;;;;0.28;0.28;;;;;;;;;;5034001;28;20037;-84
2023/07/27 05:11:37;;;;;;;0.10;0.10;;;;;;;;;;5034400;28;20173;-84
2023/07/27 05:14:03;;;;;;;0.30;0.30;;;;;;;;;;5034606;28;20041;-84
2023/07/27 05:16:30;;;;;;;0.25;0.25;;;;;;;;;;5034195;28;20127;-84
2023/07/27 05:18:57;;;;;;;0.10;0.10;;;;;;;;;;5034540;28;20508;-84
2023/07/27 05:21:23;;;;;;;0.20;0.20;;;;;;;;;;5033806;28;20053;-85
2023/07/27 05:23:49;;;;;;;0.10;0.10;;;;;;;;;;5034138;28;20029;-84
2023/07/27 05:26:15;;;;;;;0.10;0.10;;;;;;;;;;5034151;28;20446;-85
2023/07/27 05:28:41;;;;;;;0.40;0.40;;;;;;;;;;5034178;28;20053;-85
2023/07/27 05:31:08;;;;;;;0.20;0.20;;;;;;;;;;5034049;28;20095;-84
2023/07/27 05:33:34;;;;;;;0.00;0.00;;;;;;;;;;5034155;28;20034;-84
2023/07/27 05:36:00;;;;;;;0.00;0.00;;;;;;;;;;5033723;28;20021;-84
2023/07/27 05:38:26;;;;;;;0.10;0.10;;;;;;;;;;5033977;28;20490;-85
2023/07/27 05:40:52;;;;;;;0.30;0.30;;;;;;;;;;5034186;28;20021;-85
2023/07/27 05:43:17;;;;;;;0.10;0.10;;;;;;;;;;5033814;28;20033;-85
2023/07/27 05:45:44;;;;;;;0.28;0.28;;;;;;;;;;5033811;28;20025;-84
2023/07/27 05:48:10;;;;;;;0.22;0.22;;;;;;;;;;5034087;28;20037;-85
2023/07/27 05:50:36;;;;;;;0.10;0.10;;;;;;;;;;5033300;28;20588;-84
2023/07/27 05:53:04;;;;;;;0.13;0.13;;;;;;;;;;5033687;28;20092;-84
2023/07/27 05:55:30;;;;;;;0.20;0.20;;;;;;;;;;5033607;28;20024;-85
2023/07/27 05:57:56;;;;;;;0.10;0.10;;;;;;;;;;5032351;28;20029;-84
2023/07/27 06:00:22;;;;;;;0.10;0.10;;;;;;;;;;5033446;28;20029;-84
2023/07/27 06:02:48;;;;;;;0.28;0.20;;;;;;;;;;5033781;28;20535;-85
2023/07/27 06:05:14;;;;;;;0.20;0.20;;;;;;;;;;5033176;28;20163;-84
2023/07/27 06:07:40;;;;;;;0.10;0.10;;;;;;;;;;5033292;28;20017;-84
2023/07/27 06:10:08;;;;;;;0.10;0.10;;;;;;;;;;5033645;28;20040;-85
2023/07/27 06:12:34;;;;;;;0.10;0.10;;;;;;;;;;5033272;28;20036;-84
2023/07/27 06:15:00;;;;;;;0.10;0.10;;;;;;;;;;5033528;28;20044;-85
2023/07/27 06:17:28;;;;;;;0.10;0.10;;;;;;;;;;5033085;28;20049;-84
2023/07/27 06:19:54;;;;;;;0.10;0.10;;;;;;;;;;5032607;28;20486;-84
2023/07/27 06:22:20;;;;;;;0.20;0.20;;;;;;;;;;5033086;28;20045;-85
2023/07/27 06:24:46;;;;;;;0.10;0.10;;;;;;;;;;5032726;28;20033;-85
2023/07/27 06:27:12;;;;;;;0.10;0.10;;;;;;;;;;5032806;28;20033;-85
2023/07/27 06:29:38;;;;;;;0.10;0.10;;;;;;;;;;5032911;28;20047;-84
2023/07/27 06:32:04;;;;;;;0.10;0.10;;;;;;;;;;5033289;28;20437;-85
2023/07/27 06:34:30;;;;;;;0.28;0.28;;;;;;;;;;5032499;28;20460;-85
2023/07/27 06:36:56;;;;;;;0.63;0.63;;;;;;;;;;5032834;28;20025;-85
2023/07/27 06:39:22;;;;;;;0.20;0.20;;;;;;;;;;5032578;28;20025;-85
2023/07/27 06:41:48;;;;;;;0.10;0.10;;;;;;;;;;5032692;28;20025;-85
2023/07/27 06:44:14;;;;;;;0.10;0.10;;;;;;;;;;5032643;28;20029;-85
2023/07/27 06:46:40;;;;;;;2.03;0.20;;;;;;;;;;5033050;28;20083;-84
2023/07/27 06:49:06;;;;;;;0.10;0.10;;;;;;;;;;5032173;28;20115;-84
2023/07/27 06:51:32;;;;;;;0.45;0.40;;;;;;;;;;5032757;28;20072;-85
2023/07/27 06:53:58;;;;;;;0.10;0.10;;;;;;;;;;5032392;28;20045;-85
2023/07/27 06:56:24;;;;;;;0.20;0.20;;;;;;;;;;5032395;28;20021;-85
2023/07/27 06:58:51;;;;;;;0.30;0.20;;;;;;;;;;5032900;28;20040;-85
2023/07/27 07:01:17;;;;;;;0.20;0.20;;;;;;;;;;5032302;28;20075;-84
2023/07/27 07:03:42;;;;;;;0.00;0.00;;;;;;;;;;5032148;28;20048;-85
2023/07/27 07:06:09;;;;;;;0.05;0.05;;;;;;;;;;5032894;28;20025;-85
2023/07/27 07:08:35;;;;;;;0.10;0.10;;;;;;;;;;5031647;28;20129;-85
2023/07/27 07:11:01;;;;;;;0.30;0.30;;;;;;;;;;5032308;28;20057;-85
2023/07/27 07:13:27;;;;;;;0.20;0.20;;;;;;;;;;5032401;28;20486;-85
2023/07/27 07:15:53;;;;;;;0.25;0.25;;;;;;;;;;5032328;28;20156;-85
2023/07/27 07:18:19;;;;;;;0.32;0.32;;;;;;;;;;5032198;28;20049;-85
2023/07/27 07:20:47;;;;;;;0.10;0.10;;;;;;;;;;5032108;28;20498;-85
2023/07/27 07:23:13;;;;;;;0.20;0.20;;;;;;;;;;5032658;28;20079;-85
2023/07/27 07:25:43;;;;;;;0.30;0.30;;;;;;;;;;5032626;28;20483;-85
2023/07/27 07:28:09;;;;;;;0.22;0.22;;;;;;;;;;5031878;28;20052;-85
2023/07/27 07:30:39;;;;;;;0.10;0.10;;;;;;;;;;5032003;28;20021;-85
2023/07/27 07:33:05;;;;;;;0.10;0.10;;;;;;;;;;5031621;28;20064;-85
2023/07/27 07:35:34;;;;;;;0.17;0.17;;;;;;;;;;5032483;28;20473;-85
2023/07/27 07:38:00;;;;;;;0.00;0.00;;;;;;;;;;5031870;28;20032;-85
2023/07/27 07:40:26;;;;;;;0.20;0.20;;;;;;;;;;5031973;28;20029;-85
2023/07/27 07:42:52;;;;;;;0.10;0.10;;;;;;;;;;5032015;28;20029;-85
2023/07/27 07:45:18;;;;;;;0.10;0.10;;;;;;;;;;5031921;28;20036;-85
2023/07/27 07:47:44;;;;;;;0.00;0.00;;;;;;;;;;5031892;28;20101;-85
2023/07/27 07:50:10;;;;;;;0.10;0.10;;;;;;;;;;5031932;28;20481;-85
2023/07/27 07:52:36;;;;;;;0.10;0.10;;;;;;;;;;5031820;28;20021;-85
2023/07/27 07:55:02;;;;;;;0.00;0.00;;;;;;;;;;5032261;28;20060;-85
2023/07/27 07:57:28;;;;;;;0.00;0.00;;;;;;;;;;5032049;28;20033;-85
2023/07/27 07:59:54;;;;;;;0.10;0.10;;;;;;;;;;5031800;28;20026;-85
2023/07/27 08:02:20;;;;;;;0.25;0.20;;;;;;;;;;5031869;28;20029;-85
2023/07/27 08:04:46;;;;;;;0.10;0.10;;;;;;;;;;5032254;28;20045;-85
2023/07/27 08:07:12;;;;;;;0.10;0.10;;;;;;;;;;5031642;28;20084;-86
2023/07/27 08:09:38;;;;;;;0.17;0.17;;;;;;;;;;5031733;28;20083;-85
2023/07/27 08:12:04;;;;;;;0.15;0.15;;;;;;;;;;5032057;28;20108;-85
2023/07/27 08:14:31;;;;;;;0.10;0.10;;;;;;;;;;5031691;28;20400;-85
2023/07/27 08:16:58;;;;;;;0.00;0.00;;;;;;;;;;5031421;28;20069;-85
2023/07/27 08:19:24;;;;;;;0.30;0.30;;;;;;;;;;5031703;28;20052;-85
2023/07/27 08:21:50;;;;;;;0.22;0.22;;;;;;;;;;5034959;28;20453;-85
2023/07/27 08:24:16;;;;;;;0.10;0.10;;;;;;;;;;5035341;28;20049;-85
2023/07/27 08:26:42;;;;;;;0.17;0.17;;;;;;;;;;5035527;28;20100;-85
2023/07/27 08:29:08;;;;;;;0.17;0.17;;;;;;;;;;5035110;28;20045;-85
2023/07/27 08:31:34;;;;;;;0.20;0.20;;;;;;;;;;5034866;28;20029;-85
2023/07/27 08:34:00;;;;;;;0.20;0.20;;;;;;;;;;5035011;28;20029;-85
2023/07/27 08:36:26;;;;;;;0.80;0.40;;;;;;;;;;5034989;28;20022;-85
2023/07/27 08:38:52;;;;;;;0.10;0.10;;;;;;;;;;5035218;28;20033;-85
2023/07/27 08:41:18;;;;;;;0.10;0.10;;;;;;;;;;5034910;28;20773;-85
2023/07/27 08:43:45;;;;;;;0.30;0.30;;;;;;;;;;5035393;28;20029;-85
2023/07/27 08:46:11;;;;;;;0.10;0.10;;;;;;;;;;5034701;28;20033;-85
2023/07/27 08:48:37;;;;;;;0.25;0.25;;;;;;;;;;5034851;28;20044;-86
2023/07/27 08:51:03;;;;;;;0.00;0.00;;;;;;;;;;5034574;28;20052;-85
2023/07/27 08:53:30;;;;;;;0.55;0.45;;;;;;;;;;5035100;28;20021;-85
2023/07/27 08:55:58;;;;;;;0.50;0.43;;;;;;;;;;5035406;28;20033;-85
2023/07/27 08:58:24;;;;;;;0.10;0.10;;;;;;;;;;5034531;28;20080;-85
2023/07/27 09:00:50;;;;;;;0.35;0.35;;;;;;;;;;5034762;28;20022;-85
2023/07/27 09:03:16;;;;;;;0.10;0.10;;;;;;;;;;5034698;28;20030;-85
2023/07/27 09:05:42;;;;;;;0.35;0.35;;;;;;;;;;5034445;28;20436;-85
2023/07/27 09:08:09;;;;;;;1.25;0.43;;;;;;;;;;5034653;28;20375;-85
2023/07/27 09:10:38;;;;;;;0.40;0.40;;;;;;;;;;5034638;28;20478;-86
2023/07/27 09:13:04;;;;;;;3.13;0.25;;;;;;;;;;5034669;28;20049;-83
2023/07/27 09:15:31;;;;;;;0.20;0.20;;;;;;;;;;5034174;28;20029;-85
2023/07/27 09:17:58;;;;;;;0.10;0.10;;;;;;;;;;5034214;28;20490;-85
2023/07/27 09:20:25;;;;;;;0.47;0.30;;;;;;;;;;5034555;28;20444;-85
2023/07/27 09:22:51;;;;;;;0.10;0.10;;;;;;;;;;5034187;28;20478;-85
2023/07/27 09:25:23;;;;;;;0.22;0.22;;;;;;;;;;5034223;28;20021;-85
2023/07/27 09:27:53;;;;;;;1.10;0.88;;;;;;;;;;5034036;28;20497;-83
2023/07/27 09:30:19;;;;;;;0.40;0.40;;;;;;;;;;5034011;28;20072;-85
2023/07/27 09:32:47;;;;;;;0.20;0.20;;;;;;;;;;5034130;28;20037;-85
2023/07/27 09:35:17;;;;;;;0.10;0.10;;;;;;;;;;5033946;28;20032;-85
2023/07/27 09:37:44;;;;;;;0.10;0.10;;;;;;;;;;5033936;28;20026;-85
2023/07/27 09:40:12;;;;;;;0.00;0.00;;;;;;;;;;5034353;28;20021;-85
2023/07/27 09:42:40;;;;;;;0.10;0.10;;;;;;;;;;5033569;28;20110;-86
2023/07/27 09:45:06;;;;;;;0.20;0.20;;;;;;;;;;5034466;28;20382;-85
2023/07/27 09:47:32;;;;;;;0.30;0.30;;;;;;;;;;5033834;28;20026;-85
2023/07/27 09:50:02;;;;;;;0.32;0.32;;;;;;;;;;5033868;28;20057;-85
2023/07/27 09:52:28;;;;;;;0.10;0.10;;;;;;;;;;5033816;28;20025;-85
2023/07/27 09:54:55;;;;;;;0.10;0.10;;;;;;;;;;5033714;28;20033;-85
2023/07/27 09:57:21;;;;;;;0.10;0.10;;;;;;;;;;5034048;28;20024;-85
2023/07/27 09:59:48;;;;;;;0.20;0.20;;;;;;;;;;5033461;28;20102;-84
2023/07/27 10:02:14;;;;;;;0.10;0.10;;;;;;;;;;5033704;28;20036;-85
2023/07/27 10:04:51;;;;;;;0.10;0.10;;;;;;;;;;5033629;28;20036;-85
2023/07/27 10:07:21;;;;;;;0.10;0.10;;;;;;;;;;5033285;28;20047;-85
2023/07/27 10:09:47;;;;;;;1.85;0.50;;;;;;;;;;5033243;28;20038;-85
2023/07/27 10:12:30;;;;;;;0.10;0.10;;;;;;;;;;5033018;28;20469;-85
2023/07/27 10:15:14;;;;;;;0.30;0.30;;;;;;;;;;5033515;28;20103;-85
2023/07/27 10:17:49;;;;;;;0.30;0.30;;;;;;;;;;5033353;28;20049;-85
2023/07/27 10:20:22;;;;;;;0.13;0.13;;;;;;;;;;5033014;28;20389;-85
2023/07/27 10:22:52;;;;;;;0.30;0.30;;;;;;;;;;5033006;28;20029;-85
2023/07/27 10:25:18;;;;;;;2.30;0.30;;;;;;;;;;5033480;28;20026;-85
2023/07/27 10:27:55;;;;;;;0.10;0.10;;;;;;;;;;5032544;28;20029;-85
2023/07/27 10:30:21;;;;;;;0.65;0.30;;;;;;;;;;5032906;28;20042;-84
2023/07/27 10:33:06;;;;;;;0.32;0.20;;;;;;;;;;5033070;28;20101;-85
2023/07/27 10:35:52;;;;;;;0.10;0.10;;;;;;;;;;5033078;28;20033;-85
2023/07/27 10:38:20;;;;;;;0.30;0.30;;;;;;;;;;5033019;28;20033;-85
2023/07/27 10:40:46;;;;;;;0.17;0.17;;;;;;;;;;5033523;28;20091;-84
2023/07/27 10:43:12;;;;;;;0.10;0.10;;;;;;;;;;5030945;28;20501;-85
2023/07/27 10:45:38;;;;;;;0.40;0.20;;;;;;;;;;5032632;28;20032;-85
2023/07/27 10:48:04;;;;;;;0.47;0.47;;;;;;;;;;5032717;28;20130;-85
2023/07/27 10:50:30;;;;;;;0.10;0.10;;;;;;;;;;5033016;28;20103;-85
2023/07/27 10:52:56;;;;;;;0.08;0.08;;;;;;;;;;5032767;28;20084;-85
2023/07/27 10:55:22;;;;;;;0.10;0.10;;;;;;;;;;5032271;28;20125;-85
2023/07/27 10:57:48;;;;;;;0.20;0.20;;;;;;;;;;5032452;28;20021;-85
2023/07/27 11:00:14;;;;;;;0.00;0.00;;;;;;;;;;5032293;28;20025;-85
2023/07/27 11:02:43;;;;;;;0.30;0.30;;;;;;;;;;5032521;28;20553;-85
2023/07/27 11:05:09;;;;;;;0.20;0.20;;;;;;;;;;5032317;28;20492;-84
2023/07/27 11:07:36;;;;;;;0.00;0.00;;;;;;;;;;5032402;28;20029;-85
2023/07/27 11:10:09;;;;;;;0.10;0.10;;;;;;;;;;5031791;28;20037;-85
2023/07/27 11:12:47;;;;;;;0.20;0.20;;;;;;;;;;5032737;28;20056;-85
2023/07/27 11:15:15;;;;;;;0.65;0.38;;;;;;;;;;5032299;28;20084;-85
2023/07/27 11:17:41;;;;;;;0.10;0.10;;;;;;;;;;5032140;28;20046;-85
2023/07/27 11:20:09;;;;;;;0.10;0.10;;;;;;;;;;5032290;28;20025;-85
2023/07/27 11:22:36;;;;;;;0.03;0.03;;;;;;;;;;5032095;28;20116;-85
2023/07/27 11:25:04;;;;;;;0.10;0.10;;;;;;;;;;5012114;28;20025;-85
2023/07/27 11:27:30;;;;;;;0.00;0.00;;;;;;;;;;5022632;28;20029;-85
2023/07/27 11:30:04;;;;;;;0.10;0.10;;;;;;;;;;5032822;28;20033;-85
2023/07/27 11:32:30;;;;;;;0.10;0.10;;;;;;;;;;5032135;28;20030;-85
2023/07/27 11:34:57;;;;;;;0.32;0.22;;;;;;;;;;5032881;28;20469;-84
2023/07/27 11:37:26;;;;;;;7.57;0.82;;;;;;;;;;5032529;28;20053;-85
2023/07/27 11:39:52;;;;;;;0.08;0.08;;;;;;;;;;5031651;28;20025;-85
2023/07/27 11:42:28;;;;;;;0.10;0.10;;;;;;;;;;5031888;28;20038;-85
2023/07/27 11:44:54;;;;;;;0.00;0.00;;;;;;;;;;5032180;28;20504;-85
2023/07/27 11:47:20;;;;;;;0.10;0.10;;;;;;;;;;5031870;28;20397;-85
2023/07/27 11:49:46;;;;;;;0.00;0.00;;;;;;;;;;5031893;28;20045;-85
2023/07/27 11:52:12;;;;;;;0.10;0.10;;;;;;;;;;5032020;28;20034;-86
2023/07/27 11:54:42;;;;;;;0.00;0.00;;;;;;;;;;5032416;28;20482;-83
2023/07/27 11:57:08;;;;;;;0.10;0.10;;;;;;;;;;5035821;28;20145;-83
2023/07/27 11:59:34;;;;;;;0.13;0.13;;;;;;;;;;5035643;28;20068;-83
2023/07/27 12:02:00;;;;;;;0.10;0.10;;;;;;;;;;5035839;28;20029;-83
2023/07/27 12:04:27;;;;;;;0.20;0.20;;;;;;;;;;5036045;28;20108;-84
2023/07/27 12:06:55;;;;;;;0.40;0.40;;;;;;;;;;5035732;28;20389;-84
2023/07/27 12:09:22;;;;;;;0.38;0.38;;;;;;;;;;5035459;28;20043;-84
2023/07/27 12:11:48;;;;;;;0.20;0.20;;;;;;;;;;5036183;28;20021;-83
2023/07/27 12:14:14;;;;;;;3.30;0.43;;;;;;;;;;5035524;28;20417;-84
2023/07/27 12:16:41;;;;;;;0.10;0.10;;;;;;;;;;5035350;28;20065;-84
2023/07/27 12:19:07;;;;;;;0.08;0.08;;;;;;;;;;5035435;28;20029;-84
2023/07/27 12:21:38;;;;;;;0.10;0.10;;;;;;;;;;5035515;28;20412;-84
2023/07/27 12:24:08;;;;;;;0.20;0.20;;;;;;;;;;5034834;28;20489;-84
2023/07/27 12:26:35;;;;;;;0.15;0.15;;;;;;;;;;5035142;28;20017;-84
2023/07/27 12:29:01;;;;;;;0.20;0.20;;;;;;;;;;5035433;28;20046;-85
2023/07/27 12:31:27;;;;;;;0.63;0.47;;;;;;;;;;5035347;28;20028;-85
2023/07/27 12:33:53;;;;;;;0.00;0.00;;;;;;;;;;5035206;28;20026;-84
2023/07/27 12:36:19;;;;;;;0.30;0.30;;;;;;;;;;5035149;28;20104;-85
2023/07/27 12:38:45;;;;;;;0.20;0.20;;;;;;;;;;5035251;28;20029;-85
2023/07/27 12:41:11;;;;;;;0.03;0.03;;;;;;;;;;5035271;28;20025;-85
2023/07/27 12:43:37;;;;;;;0.10;0.10;;;;;;;;;;5035042;28;20036;-84
2023/07/27 12:46:04;;;;;;;0.13;0.10;;;;;;;;;;5034887;28;20469;-85
2023/07/27 12:48:30;;;;;;;0.10;0.10;;;;;;;;;;5034865;28;20033;-84
2023/07/27 12:50:56;;;;;;;0.05;0.05;;;;;;;;;;5034968;28;20029;-85
2023/07/27 12:53:22;;;;;;;0.10;0.10;;;;;;;;;;5034899;28;20026;-85
2023/07/27 12:55:48;;;;;;;0.10;0.10;;;;;;;;;;5034827;28;20021;-84
2023/07/27 12:58:14;;;;;;;0.35;0.35;;;;;;;;;;5034669;28;20021;-84
2023/07/27 13:00:41;;;;;;;0.10;0.10;;;;;;;;;;5034483;28;20029;-84
2023/07/27 13:03:07;;;;;;;0.20;0.20;;;;;;;;;;5034739;28;20033;-85
2023/07/27 13:05:33;;;;;;;0.10;0.10;;;;;;;;;;5034118;28;20380;-85
2023/07/27 13:08:00;;;;;;;0.20;0.20;;;;;;;;;;5034574;28;20057;-84
2023/07/27 13:10:26;;;;;;;0.20;0.20;;;;;;;;;;5034359;28;20409;-84
2023/07/27 13:12:52;;;;;;;0.28;0.20;;;;;;;;;;5034858;28;20029;-84
2023/07/27 13:15:18;;;;;;;0.10;0.10;;;;;;;;;;5034563;28;20041;-84
2023/07/27 13:17:46;;;;;;;0.15;0.15;;;;;;;;;;5034178;28;20052;-84
2023/07/27 13:20:12;;;;;;;0.30;0.30;;;;;;;;;;5033970;28;20025;-85
2023/07/27 13:22:38;;;;;;;0.20;0.20;;;;;;;;;;5034065;28;20026;-86
2023/07/27 13:25:04;;;;;;;0.13;0.13;;;;;;;;;;5034180;28;20036;-85
2023/07/27 13:27:31;;;;;;;0.15;0.15;;;;;;;;;;5034095;28;20025;-86
2023/07/27 13:29:57;;;;;;;0.00;0.00;;;;;;;;;;5034593;28;20033;-86
2023/07/27 13:32:23;;;;;;;0.10;0.10;;;;;;;;;;5034219;28;20029;-85
2023/07/27 13:34:49;;;;;;;0.38;0.17;;;;;;;;;;5033767;28;20029;-85
2023/07/27 13:37:15;;;;;;;0.13;0.13;;;;;;;;;;5032685;28;20075;-85
2023/07/27 13:39:41;;;;;;;0.10;0.10;;;;;;;;;;5033845;28;20025;-85
2023/07/27 13:42:08;;;;;;;0.08;0.08;;;;;;;;;;5034105;28;20024;-86
2023/07/27 13:44:34;;;;;;;0.32;0.32;;;;;;;;;;5033963;28;20378;-85
2023/07/27 13:47:00;;;;;;;0.15;0.15;;;;;;;;;;5034222;28;20033;-86
2023/07/27 13:49:26;;;;;;;0.10;0.10;;;;;;;;;;5033491;28;20045;-86
2023/07/27 13:51:52;;;;;;;0.10;0.10;;;;;;;;;;5033845;28;20029;-85
2023/07/27 13:54:18;;;;;;;0.10;0.10;;;;;;;;;;5033822;28;20584;-85
2023/07/27 13:56:44;;;;;;;0.10;0.10;;;;;;;;;;5033675;28;20026;-86
2023/07/27 13:59:10;;;;;;;0.10;0.10;;;;;;;;;;5033595;28;20029;-85
2023/07/27 14:01:36;;;;;;;0.00;0.00;;;;;;;;;;5033524;28;20120;-85
2023/07/27 14:04:02;;;;;;;0.82;0.25;;;;;;;;;;5033459;28;20045;-85
2023/07/27 14:06:28;;;;;;;0.28;0.28;;;;;;;;;;5033587;28;20032;-85
2023/07/27 14:08:55;;;;;;;0.05;0.05;;;;;;;;;;5033282;28;20501;-85
2023/07/27 14:11:21;;;;;;;0.10;0.10;;;;;;;;;;5033402;28;20075;-85
2023/07/27 14:13:47;;;;;;;0.08;0.08;;;;;;;;;;5033376;28;20029;-85
2023/07/27 14:16:13;;;;;;;0.30;0.30;;;;;;;;;;5033591;28;20025;-85
2023/07/27 14:18:41;;;;;;;0.10;0.10;;;;;;;;;;5032165;28;20033;-85
2023/07/27 14:21:07;;;;;;;0.10;0.10;;;;;;;;;;5033294;28;20034;-85
2023/07/27 14:23:33;;;;;;;0.10;0.10;;;;;;;;;;5032954;28;20385;-85
2023/07/27 14:25:59;;;;;;;0.00;0.00;;;;;;;;;;5033318;28;20064;-85
2023/07/27 14:28:25;;;;;;;0.00;0.00;;;;;;;;;;5032845;28;20033;-85
2023/07/27 14:30:53;;;;;;;0.00;0.00;;;;;;;;;;5033069;28;20025;-86
2023/07/27 14:33:19;;;;;;;0.00;0.00;;;;;;;;;;5033071;28;20021;-85
2023/07/27 14:35:45;;;;;;;0.10;0.10;;;;;;;;;;5032773;28;20036;-85
2023/07/27 14:38:11;;;;;;;0.00;0.00;;;;;;;;;;5032840;28;20029;-85
2023/07/27 14:40:37;;;;;;;0.10;0.10;;;;;;;;;;5032757;28;20028;-85